Time;durP1;ratioP1;P1;durP2;ratioP2;P2;SDS_P1;SDS_P2;PMS_P1;PMS_P2;Temp;Humidity;BMP_temperature;BMP_pressure;BME280_temperature;BME280_humidity;BME280_pressure;Samples;Min_cycle;Max_cycle;Signal;HPM_P1;HPM_P2
2021/12/20 00:01:24;;;;;;;31.65;4.38;;;6.30;99.90;;;;;;5126800;27;20417;-71
2021/12/20 00:03:49;;;;;;;42.97;4.55;;;6.30;99.90;;;;;;5093080;28;20040;-71
2021/12/20 00:06:15;;;;;;;29.42;4.18;;;6.30;99.90;;;;;;5126795;27;20047;-71
2021/12/20 00:08:41;;;;;;;32.22;4.15;;;6.30;99.90;;;;;;5127019;27;20055;-71
2021/12/20 00:11:06;;;;;;;45.13;5.35;;;6.20;99.90;;;;;;5075626;28;20397;-71
2021/12/20 00:13:32;;;;;;;32.53;4.55;;;6.20;99.90;;;;;;5125969;27;20055;-71
2021/12/20 00:15:58;;;;;;;27.23;3.58;;;6.10;99.90;;;;;;5092693;28;20040;-73
2021/12/20 00:18:24;;;;;;;33.47;4.88;;;6.20;99.90;;;;;;5092251;28;20497;-71
2021/12/20 00:20:49;;;;;;;32.90;4.20;;;6.10;99.90;;;;;;5092554;28;20028;-71
2021/12/20 00:23:16;;;;;;;35.75;5.03;;;6.10;99.90;;;;;;5092563;28;20083;-72
2021/12/20 00:25:48;;;;;;;27.85;4.10;;;6.10;99.90;;;;;;5076181;28;20036;-71
2021/12/20 00:28:15;;;;;;;32.00;4.50;;;6.10;99.90;;;;;;5092722;28;20177;-71
2021/12/20 00:30:41;;;;;;;33.55;4.75;;;6.10;99.90;;;;;;5092810;28;20036;-71
2021/12/20 00:33:06;;;;;;;29.77;4.30;;;6.10;99.90;;;;;;5092537;28;20062;-73
2021/12/20 00:35:32;;;;;;;34.38;4.25;;;6.10;99.90;;;;;;5092002;28;20475;-71
2021/12/20 00:40:42;;;;;;;29.88;4.20;;;6.10;99.90;;;;;;5092335;28;20044;-73
2021/12/20 00:43:07;;;;;;;34.53;4.90;;;6.10;99.90;;;;;;5126656;28;20126;-71
2021/12/20 00:45:36;;;;;;;26.05;3.95;;;6.00;99.90;;;;;;5126471;27;20040;-70
2021/12/20 00:48:03;;;;;;;34.65;4.72;;;6.00;99.90;;;;;;5092192;28;20047;-70
2021/12/20 00:50:30;;;;;;;28.40;4.32;;;6.00;99.90;;;;;;5092762;28;20052;-72
2021/12/20 00:52:55;;;;;;;35.22;4.70;;;6.00;99.90;;;;;;5092567;28;20058;-70
2021/12/20 00:55:23;;;;;;;32.95;5.05;;;6.00;99.90;;;;;;5126418;28;20386;-71
2021/12/20 00:57:51;;;;;;;36.70;5.20;;;6.00;99.90;;;;;;5092606;28;20059;-72
2021/12/20 01:00:21;;;;;;;34.42;5.07;;;6.00;99.90;;;;;;5109136;28;20040;-71
2021/12/20 01:02:47;;;;;;;32.50;4.35;;;6.00;99.90;;;;;;5091817;28;20496;-72
2021/12/20 01:05:13;;;;;;;35.92;5.10;;;6.00;99.90;;;;;;5108930;28;20050;-71
2021/12/20 01:07:39;;;;;;;32.15;4.93;;;6.00;99.90;;;;;;5074740;28;20032;-71
2021/12/20 01:10:08;;;;;;;30.83;3.67;;;5.90;99.90;;;;;;5092409;28;20093;-70
2021/12/20 01:12:44;;;;;;;34.50;4.28;;;6.00;99.90;;;;;;5092344;28;20044;-71
2021/12/20 01:15:13;;;;;;;28.63;4.15;;;5.90;99.90;;;;;;5091957;28;20040;-71
2021/12/20 01:17:38;;;;;;;36.13;4.93;;;5.90;99.90;;;;;;5074978;28;20050;-71
2021/12/20 01:20:06;;;;;;;29.67;4.30;;;5.90;99.90;;;;;;5126351;28;20123;-71
2021/12/20 01:22:32;;;;;;;30.55;4.00;;;5.90;99.90;;;;;;5092280;28;20063;-71
2021/12/20 01:24:57;;;;;;;28.95;4.57;;;5.90;99.90;;;;;;5109086;28;20359;-71
2021/12/20 01:27:23;;;;;;;30.45;4.32;;;5.90;99.90;;;;;;5126090;28;20051;-71
2021/12/20 01:29:49;;;;;;;31.60;4.53;;;5.90;99.90;;;;;;5125717;28;20055;-70
2021/12/20 01:32:15;;;;;;;30.50;4.00;;;5.90;99.90;;;;;;5092348;28;20040;-73
2021/12/20 01:34:40;;;;;;;30.95;5.28;;;5.80;99.90;;;;;;5128982;27;20040;-71
2021/12/20 01:37:06;;;;;;;36.13;5.43;;;5.80;99.90;;;;;;5079337;28;20040;-71
2021/12/20 01:39:31;;;;;;;31.15;4.85;;;5.80;99.90;;;;;;5095729;28;20040;-72
2021/12/20 01:41:59;;;;;;;28.77;5.03;;;5.80;99.90;;;;;;5095616;28;20048;-71
2021/12/20 01:44:24;;;;;;;29.33;4.35;;;5.80;99.90;;;;;;5095019;28;20048;-71
2021/12/20 01:46:50;;;;;;;30.42;4.38;;;5.90;99.90;;;;;;5094910;28;20040;-72
2021/12/20 01:49:17;;;;;;;29.95;5.07;;;5.80;99.90;;;;;;5095544;28;20475;-70
2021/12/20 01:51:51;;;;;;;33.35;5.47;;;5.80;99.90;;;;;;5078838;28;20044;-71
2021/12/20 01:54:17;;;;;;;28.95;3.80;;;5.80;99.90;;;;;;5095283;28;20048;-71
2021/12/20 01:56:44;;;;;;;28.98;4.43;;;5.80;99.90;;;;;;5094809;28;20040;-71
2021/12/20 01:59:11;;;;;;;33.28;4.35;;;5.70;99.90;;;;;;5077408;28;20097;-71
2021/12/20 02:01:37;;;;;;;36.38;4.57;;;5.70;99.90;;;;;;5078682;28;20035;-71
2021/12/20 02:04:07;;;;;;;29.33;4.80;;;5.70;99.90;;;;;;5095382;28;20127;-71
2021/12/20 02:09:06;;;;;;;37.95;5.03;;;5.70;99.90;;;;;;5095087;28;20389;-71
2021/12/20 02:11:32;;;;;;;40.50;4.25;;;5.60;99.90;;;;;;5094740;28;20048;-71
2021/12/20 02:13:57;;;;;;;34.05;4.95;;;5.60;99.90;;;;;;5095129;28;20378;-72
2021/12/20 02:16:23;;;;;;;30.33;4.28;;;5.60;99.90;;;;;;5094822;28;20458;-72
2021/12/20 02:18:49;;;;;;;30.15;4.22;;;5.60;99.90;;;;;;5094772;28;20485;-71
2021/12/20 02:21:15;;;;;;;30.67;4.68;;;5.60;99.90;;;;;;5094886;28;20513;-70
2021/12/20 02:23:41;;;;;;;33.35;5.28;;;5.50;99.90;;;;;;5077797;28;20048;-71
2021/12/20 02:26:07;;;;;;;32.45;4.25;;;5.50;99.90;;;;;;5094218;28;20090;-71
2021/12/20 02:28:39;;;;;;;35.65;4.10;;;5.50;99.90;;;;;;5111214;28;20390;-71
2021/12/20 02:39:11;;;;;;;34.17;4.35;;;5.40;99.90;;;;;;5094679;28;20090;-71
2021/12/20 02:41:37;;;;;;;34.22;4.13;;;5.40;99.90;;;;;;5111569;28;20071;-71
2021/12/20 02:44:06;;;;;;;32.75;4.05;;;5.40;99.90;;;;;;5078028;28;20221;-71
2021/12/20 02:49:23;;;;;;;24.08;4.05;;;5.30;99.90;;;;;;5094389;28;20340;-71
2021/12/20 02:51:53;;;;;;;30.13;3.67;;;5.30;99.90;;;;;;5094964;28;20137;-71
2021/12/20 02:54:22;;;;;;;29.77;4.35;;;5.30;99.90;;;;;;5127848;27;20040;-70
2021/12/20 02:56:49;;;;;;;31.58;4.53;;;5.30;99.90;;;;;;5093809;28;20044;-70
2021/12/20 02:59:15;;;;;;;33.05;3.97;;;5.20;99.90;;;;;;5093995;28;20040;-70
2021/12/20 03:01:46;;;;;;;34.85;3.78;;;5.20;99.90;;;;;;5077026;28;20027;-71
2021/12/20 03:04:12;;;;;;;25.23;4.18;;;5.20;99.90;;;;;;5077501;28;20040;-71
2021/12/20 03:06:42;;;;;;;29.95;4.45;;;5.20;99.90;;;;;;5094233;28;20386;-71
2021/12/20 03:09:13;;;;;;;32.38;4.10;;;5.20;99.90;;;;;;5094315;28;20397;-71
2021/12/20 03:11:39;;;;;;;34.85;4.43;;;5.10;99.90;;;;;;5077093;28;20035;-73
2021/12/20 03:14:15;;;;;;;26.75;3.83;;;5.10;99.90;;;;;;5093635;28;20081;-70
2021/12/20 03:16:42;;;;;;;28.35;3.28;;;5.10;99.90;;;;;;5111446;28;20051;-72
2021/12/20 03:19:07;;;;;;;30.98;4.75;;;5.10;99.90;;;;;;5093256;28;20048;-71
2021/12/20 03:21:33;;;;;;;21.90;3.35;;;5.00;99.90;;;;;;5127469;27;20123;-70
2021/12/20 03:23:59;;;;;;;20.45;3.22;;;5.00;99.90;;;;;;5127656;27;20032;-71
2021/12/20 03:26:25;;;;;;;22.40;3.17;;;5.00;99.90;;;;;;5093658;28;20033;-71
2021/12/20 03:28:51;;;;;;;26.15;4.15;;;4.90;99.90;;;;;;5076445;28;20044;-72
2021/12/20 03:31:17;;;;;;;29.80;3.42;;;4.80;99.90;;;;;;5076805;28;20032;-70
2021/12/20 03:33:43;;;;;;;23.70;4.65;;;4.80;99.90;;;;;;5093595;28;20551;-71
2021/12/20 03:36:08;;;;;;;24.63;3.22;;;4.80;99.90;;;;;;5093560;28;20087;-71
2021/12/20 03:38:34;;;;;;;18.48;3.40;;;4.80;99.90;;;;;;5093616;28;20122;-72
2021/12/20 03:41:00;;;;;;;23.85;3.42;;;4.70;99.90;;;;;;5093084;28;20040;-71
2021/12/20 03:43:31;;;;;;;21.98;3.13;;;4.70;99.90;;;;;;5093044;28;20047;-71
2021/12/20 03:45:58;;;;;;;18.35;3.22;;;4.60;99.90;;;;;;5093092;28;20044;-72
2021/12/20 03:48:24;;;;;;;25.15;3.47;;;4.50;99.90;;;;;;5092294;28;20119;-71
2021/12/20 03:50:50;;;;;;;22.17;3.30;;;4.50;99.90;;;;;;5093553;28;20044;-70
2021/12/20 03:53:15;;;;;;;24.20;3.42;;;4.50;99.90;;;;;;5093168;28;20044;-71
2021/12/20 03:55:41;;;;;;;24.77;3.17;;;4.40;99.90;;;;;;5093105;28;20075;-71
2021/12/20 03:58:06;;;;;;;18.40;3.28;;;4.40;99.90;;;;;;5091936;28;20044;-71
2021/12/20 04:00:32;;;;;;;23.02;3.05;;;4.40;99.90;;;;;;5092929;28;20047;-71
2021/12/20 04:02:58;;;;;;;21.92;3.67;;;4.30;99.90;;;;;;5093278;28;20435;-71
2021/12/20 04:05:24;;;;;;;17.45;2.45;;;4.30;99.90;;;;;;5093383;28;20442;-70
2021/12/20 04:07:49;;;;;;;16.60;2.55;;;4.30;99.90;;;;;;5092962;28;20040;-72
2021/12/20 04:10:16;;;;;;;18.67;2.90;;;4.20;99.90;;;;;;5076035;28;20105;-72
2021/12/20 04:12:41;;;;;;;23.45;3.05;;;4.20;99.90;;;;;;5092554;28;20079;-70
2021/12/20 04:15:07;;;;;;;16.20;2.90;;;4.10;99.90;;;;;;5075980;28;20271;-72
2021/12/20 04:17:33;;;;;;;23.73;3.58;;;4.10;99.90;;;;;;5092803;28;20052;-71
2021/12/20 04:19:59;;;;;;;25.75;3.30;;;4.10;99.90;;;;;;5126374;27;20499;-74
2021/12/20 04:22:24;;;;;;;24.92;3.03;;;4.00;99.90;;;;;;5092787;28;20454;-71
2021/12/20 04:24:50;;;;;;;22.70;3.10;;;4.00;99.90;;;;;;5126803;27;20048;-70
2021/12/20 04:27:16;;;;;;;33.58;4.07;;;3.90;99.90;;;;;;5109373;28;20036;-71
2021/12/20 04:29:41;;;;;;;23.15;3.08;;;3.80;99.90;;;;;;5126815;27;20048;-71
2021/12/20 04:32:07;;;;;;;23.15;2.95;;;3.80;99.90;;;;;;5092826;28;20044;-70
2021/12/20 04:34:33;;;;;;;21.77;3.22;;;3.70;99.90;;;;;;5126470;27;20140;-71
2021/12/20 04:36:59;;;;;;;22.50;3.60;;;3.70;99.90;;;;;;5126854;27;20044;-73
2021/12/20 04:39:29;;;;;;;18.92;2.88;;;3.70;99.90;;;;;;5092570;28;20036;-71
2021/12/20 04:41:56;;;;;;;22.15;3.58;;;3.60;99.90;;;;;;5092455;28;20044;-73
2021/12/20 04:44:21;;;;;;;16.80;2.55;;;3.60;99.90;;;;;;5092076;28;20071;-71
2021/12/20 04:46:47;;;;;;;18.77;2.63;;;3.50;99.90;;;;;;5092851;28;20071;-71
2021/12/20 04:49:12;;;;;;;18.30;3.03;;;3.50;99.90;;;;;;5092386;28;20351;-71
2021/12/20 04:51:38;;;;;;;18.65;2.50;;;3.40;99.90;;;;;;5092403;28;20086;-71
2021/12/20 04:54:04;;;;;;;17.52;2.40;;;3.40;99.90;;;;;;5092404;28;20119;-71
2021/12/20 04:56:30;;;;;;;21.65;2.72;;;3.40;99.90;;;;;;5092019;28;20109;-72
2021/12/20 04:58:55;;;;;;;13.00;2.45;;;3.30;99.90;;;;;;5092508;28;20051;-71
2021/12/20 05:01:21;;;;;;;15.90;3.00;;;3.30;99.90;;;;;;5075559;28;20071;-71
2021/12/20 05:03:47;;;;;;;22.05;3.25;;;3.20;99.90;;;;;;5075509;28;20044;-71
2021/12/20 05:06:12;;;;;;;19.60;3.38;;;3.20;99.90;;;;;;5075704;28;20069;-70
2021/12/20 05:08:47;;;;;;;17.67;2.80;;;3.10;99.90;;;;;;5093386;28;20039;-73
2021/12/20 05:11:13;;;;;;;17.15;3.30;;;3.10;99.90;;;;;;5079585;28;20058;-71
2021/12/20 05:13:38;;;;;;;21.02;2.85;;;3.10;99.90;;;;;;5095768;28;20044;-71
2021/12/20 05:16:04;;;;;;;21.85;3.25;;;3.00;99.90;;;;;;5130525;27;20031;-71
2021/12/20 05:18:30;;;;;;;25.02;2.88;;;3.00;99.90;;;;;;5095715;28;20051;-71
2021/12/20 05:20:56;;;;;;;27.05;3.95;;;2.90;99.90;;;;;;5129877;27;20028;-70
2021/12/20 05:23:22;;;;;;;16.65;2.50;;;2.90;99.90;;;;;;5130043;27;20040;-71
2021/12/20 05:25:48;;;;;;;19.23;2.53;;;2.90;99.90;;;;;;5094698;28;20056;-71
2021/12/20 05:28:13;;;;;;;19.23;3.05;;;2.80;99.90;;;;;;5096638;28;20048;-70
2021/12/20 05:30:39;;;;;;;18.35;3.25;;;2.80;99.90;;;;;;5096040;28;20071;-71
2021/12/20 05:33:05;;;;;;;14.18;2.63;;;2.80;99.90;;;;;;5095642;28;20043;-74
2021/12/20 05:35:31;;;;;;;17.08;3.20;;;2.80;99.90;;;;;;5095319;28;20040;-70
2021/12/20 05:37:58;;;;;;;20.17;3.30;;;2.70;99.90;;;;;;5112294;28;20085;-72
2021/12/20 05:40:24;;;;;;;14.55;2.55;;;2.70;99.90;;;;;;5095226;28;20036;-71
2021/12/20 05:42:50;;;;;;;13.45;2.33;;;2.60;99.90;;;;;;5095954;28;20047;-70
2021/12/20 05:45:17;;;;;;;20.27;3.10;;;2.60;99.90;;;;;;5095529;28;20051;-71
2021/12/20 05:47:42;;;;;;;17.92;2.53;;;2.60;99.90;;;;;;5095280;28;20036;-73
2021/12/20 05:50:09;;;;;;;16.80;2.47;;;2.50;99.90;;;;;;5130032;27;20100;-71
2021/12/20 05:52:36;;;;;;;16.20;2.42;;;2.50;99.90;;;;;;5078452;28;20086;-71
2021/12/20 05:55:03;;;;;;;13.07;2.90;;;2.50;99.90;;;;;;5112587;28;20052;-73
2021/12/20 05:57:29;;;;;;;25.23;3.40;;;2.50;99.90;;;;;;5094761;28;20414;-71
2021/12/20 05:59:55;;;;;;;17.23;2.63;;;2.40;99.90;;;;;;5094914;28;20039;-73
2021/12/20 06:02:21;;;;;;;17.88;2.97;;;2.40;99.90;;;;;;5078538;28;20040;-74
2021/12/20 06:04:50;;;;;;;15.57;2.50;;;2.40;99.90;;;;;;5078420;28;20040;-71
2021/12/20 06:07:20;;;;;;;14.80;2.45;;;2.30;99.90;;;;;;5078020;28;20039;-73
2021/12/20 06:09:47;;;;;;;18.65;2.50;;;2.30;99.90;;;;;;5095671;28;20454;-71
2021/12/20 06:12:13;;;;;;;19.23;2.55;;;2.30;99.90;;;;;;5095196;28;20123;-70
2021/12/20 06:14:39;;;;;;;19.27;2.53;;;2.30;99.90;;;;;;5077933;28;20040;-70
2021/12/20 06:17:05;;;;;;;12.93;2.45;;;2.20;99.90;;;;;;5094113;28;20062;-72
2021/12/20 06:19:30;;;;;;;18.35;3.00;;;2.20;99.90;;;;;;5093689;28;20094;-68
2021/12/20 06:21:56;;;;;;;14.85;2.30;;;2.20;99.90;;;;;;5093852;28;20055;-68
2021/12/20 06:24:22;;;;;;;16.17;2.85;;;2.10;99.90;;;;;;5094495;28;20399;-67
2021/12/20 06:26:48;;;;;;;13.88;1.95;;;2.10;99.90;;;;;;5094085;28;20363;-69
2021/12/20 06:29:14;;;;;;;17.80;2.63;;;2.10;99.90;;;;;;5128354;27;20550;-72
2021/12/20 06:31:40;;;;;;;16.48;2.50;;;2.10;99.90;;;;;;5094248;28;20043;-69
2021/12/20 06:34:06;;;;;;;11.98;2.38;;;2.00;99.90;;;;;;5093991;28;20371;-67
2021/12/20 06:36:32;;;;;;;16.80;2.72;;;2.00;99.90;;;;;;5093796;28;20072;-75
2021/12/20 06:38:58;;;;;;;12.57;2.63;;;2.00;99.90;;;;;;5077438;28;20422;-75
2021/12/20 06:41:25;;;;;;;13.20;2.58;;;1.90;99.90;;;;;;5094039;28;20040;-75
2021/12/20 06:43:51;;;;;;;15.35;2.40;;;1.90;99.90;;;;;;5077223;28;20123;-69
2021/12/20 06:46:19;;;;;;;15.02;2.30;;;1.90;99.90;;;;;;5093803;28;20183;-71
2021/12/20 06:48:45;;;;;;;15.23;2.55;;;1.90;99.90;;;;;;5093371;28;20085;-70
2021/12/20 06:51:11;;;;;;;12.88;2.70;;;1.90;99.90;;;;;;5093540;28;20390;-72
2021/12/20 06:53:36;;;;;;;16.67;2.88;;;1.80;99.90;;;;;;5094147;28;20079;-69
2021/12/20 06:56:02;;;;;;;14.07;2.22;;;1.80;99.90;;;;;;5094188;28;20071;-70
2021/12/20 06:58:28;;;;;;;10.85;2.20;;;1.70;99.90;;;;;;5110590;28;20047;-69
2021/12/20 07:00:54;;;;;;;10.05;2.47;;;1.70;99.90;;;;;;5127563;27;20123;-69
2021/12/20 07:03:21;;;;;;;15.20;2.33;;;1.70;99.90;;;;;;5127429;27;20126;-69
2021/12/20 07:05:46;;;;;;;12.85;2.38;;;1.70;99.90;;;;;;5076415;28;20047;-72
2021/12/20 07:08:12;;;;;;;16.58;2.90;;;1.60;99.90;;;;;;5093745;28;20081;-69
2021/12/20 07:10:38;;;;;;;12.07;2.42;;;1.60;99.90;;;;;;5076799;28;20044;-70
2021/12/20 07:13:05;;;;;;;13.25;2.10;;;1.60;99.90;;;;;;5076456;28;20047;-69
2021/12/20 07:15:31;;;;;;;11.55;2.03;;;1.60;99.90;;;;;;5093418;28;20166;-70
2021/12/20 07:17:58;;;;;;;11.15;1.90;;;1.60;99.90;;;;;;5092681;28;20111;-69
2021/12/20 07:20:24;;;;;;;12.95;2.00;;;1.50;99.90;;;;;;5092344;28;20059;-69
2021/12/20 07:22:50;;;;;;;12.82;2.38;;;1.50;99.90;;;;;;5093526;28;20055;-69
2021/12/20 07:25:15;;;;;;;15.32;2.22;;;1.50;99.90;;;;;;5093034;28;20044;-68
2021/12/20 07:27:41;;;;;;;13.15;2.65;;;1.50;99.90;;;;;;5091908;28;20127;-69
2021/12/20 07:30:07;;;;;;;10.25;1.92;;;1.50;99.90;;;;;;5126816;27;20124;-69
2021/12/20 07:32:33;;;;;;;11.18;2.15;;;1.50;99.90;;;;;;5092879;28;20046;-69
2021/12/20 07:34:59;;;;;;;12.02;2.25;;;1.50;99.90;;;;;;5092681;28;20123;-71
2021/12/20 07:37:28;;;;;;;13.18;2.20;;;1.40;99.90;;;;;;5076333;28;20040;-69
2021/12/20 07:39:54;;;;;;;14.18;2.50;;;1.40;99.90;;;;;;5092673;28;20467;-69
2021/12/20 07:42:20;;;;;;;11.27;2.83;;;1.40;99.90;;;;;;5092587;28;20050;-69
2021/12/20 07:44:45;;;;;;;14.45;2.22;;;1.40;99.90;;;;;;5092812;28;20048;-70
2021/12/20 07:47:11;;;;;;;14.30;1.85;;;1.40;99.90;;;;;;5092478;28;20044;-69
2021/12/20 07:49:37;;;;;;;10.95;2.42;;;1.30;99.90;;;;;;5105894;28;20383;-71
2021/12/20 07:52:04;;;;;;;12.50;2.15;;;1.30;99.90;;;;;;5086414;28;20072;-71
2021/12/20 07:54:30;;;;;;;14.57;2.28;;;1.30;99.90;;;;;;5092872;28;20060;-71
2021/12/20 07:56:57;;;;;;;12.30;2.20;;;1.30;99.90;;;;;;5092593;28;20044;-69
2021/12/20 07:59:22;;;;;;;14.10;2.25;;;1.30;99.90;;;;;;5092525;28;20363;-69
2021/12/20 08:01:49;;;;;;;13.25;2.33;;;1.20;99.90;;;;;;5075310;28;20571;-71
2021/12/20 08:04:15;;;;;;;16.35;2.20;;;1.30;99.90;;;;;;5092202;28;20044;-69
2021/12/20 08:06:43;;;;;;;13.35;2.40;;;1.20;99.90;;;;;;5092425;28;20097;-69
2021/12/20 08:09:10;;;;;;;16.00;2.80;;;1.20;99.90;;;;;;5092448;28;20050;-69
2021/12/20 08:11:36;;;;;;;9.25;1.48;;;1.20;99.90;;;;;;5092363;28;20051;-71
2021/12/20 08:14:03;;;;;;;6.72;1.80;;;1.20;99.90;;;;;;5092320;28;20036;-70
2021/12/20 08:16:29;;;;;;;8.52;1.50;;;1.20;99.90;;;;;;5092117;28;20048;-69
2021/12/20 08:18:54;;;;;;;6.95;1.20;;;1.20;99.90;;;;;;5091941;28;20059;-69
2021/12/20 08:21:21;;;;;;;3.83;1.10;;;1.10;99.90;;;;;;5092296;28;20492;-68
2021/12/20 08:23:47;;;;;;;4.38;1.48;;;1.10;99.90;;;;;;5091932;28;20047;-68
2021/12/20 08:26:14;;;;;;;7.00;2.05;;;1.10;99.90;;;;;;5092204;28;20363;-69
2021/12/20 08:28:40;;;;;;;4.78;0.73;;;1.10;99.90;;;;;;5092291;28;20052;-70
2021/12/20 08:31:08;;;;;;;5.82;0.93;;;1.10;99.90;;;;;;5091136;28;20444;-70
2021/12/20 08:33:34;;;;;;;6.90;1.10;;;1.10;99.90;;;;;;5091692;28;20122;-70
2021/12/20 08:36:02;;;;;;;7.30;1.20;;;1.10;99.90;;;;;;5109183;28;20123;-69
2021/12/20 08:38:28;;;;;;;5.10;1.00;;;1.10;99.90;;;;;;5092215;28;20032;-69
2021/12/20 08:40:54;;;;;;;4.05;0.80;;;1.10;99.90;;;;;;5125828;27;20043;-69
2021/12/20 08:43:21;;;;;;;7.45;1.13;;;1.10;99.90;;;;;;5091481;28;20131;-69
2021/12/20 08:45:47;;;;;;;7.47;1.70;;;1.10;99.90;;;;;;5091240;28;20474;-72
2021/12/20 08:48:13;;;;;;;4.22;1.52;;;1.10;99.90;;;;;;5091886;28;20147;-69
2021/12/20 08:50:39;;;;;;;14.93;1.77;;;1.10;99.90;;;;;;5092033;28;20131;-71
2021/12/20 08:53:07;;;;;;;9.27;1.73;;;1.10;99.90;;;;;;5092050;28;20036;-69
2021/12/20 08:55:33;;;;;;;5.40;1.58;;;1.20;99.90;;;;;;5091950;28;20040;-69
2021/12/20 08:57:59;;;;;;;6.07;1.35;;;1.20;99.90;;;;;;5091684;28;20044;-71
2021/12/20 09:00:28;;;;;;;4.55;0.98;;;1.20;99.90;;;;;;5091298;28;20131;-69
2021/12/20 09:02:55;;;;;;;8.23;1.50;;;1.20;99.90;;;;;;5073564;28;20064;-69
2021/12/20 09:05:22;;;;;;;6.90;1.45;;;1.20;99.90;;;;;;5091145;28;20048;-69
2021/12/20 09:07:48;;;;;;;12.93;1.92;;;1.20;99.90;;;;;;5091577;28;20080;-71
2021/12/20 09:10:15;;;;;;;8.05;1.30;;;1.30;99.90;;;;;;5091876;28;20083;-72
2021/12/20 09:12:42;;;;;;;10.75;1.50;;;1.30;99.90;;;;;;5091551;28;20382;-69
2021/12/20 09:15:15;;;;;;;7.80;1.60;;;1.30;99.90;;;;;;5090597;28;20032;-69
2021/12/20 09:17:41;;;;;;;7.10;1.73;;;1.30;99.90;;;;;;5091110;28;20040;-69
2021/12/20 09:20:08;;;;;;;8.20;1.75;;;1.30;99.90;;;;;;5091100;28;20059;-70
2021/12/20 09:22:39;;;;;;;10.32;1.80;;;1.40;99.90;;;;;;5091929;28;20084;-71
2021/12/20 09:25:06;;;;;;;6.65;1.42;;;1.40;99.90;;;;;;5091490;28;20044;-69
2021/12/20 09:27:32;;;;;;;10.07;1.88;;;1.40;99.90;;;;;;5091274;28;20051;-69
2021/12/20 09:29:58;;;;;;;9.90;2.28;;;1.50;99.90;;;;;;5091749;28;20206;-71
2021/12/20 09:32:24;;;;;;;14.05;2.28;;;1.50;99.90;;;;;;5090569;28;20472;-70
2021/12/20 09:34:49;;;;;;;8.35;1.85;;;1.50;99.90;;;;;;5074793;28;20051;-69
2021/12/20 09:37:15;;;;;;;7.65;1.88;;;1.50;99.90;;;;;;5074769;28;20040;-69
2021/12/20 09:39:42;;;;;;;8.45;2.47;;;1.60;99.90;;;;;;5091662;28;20040;-70
2021/12/20 09:42:12;;;;;;;9.45;2.63;;;1.70;99.90;;;;;;5091040;28;20062;-69
2021/12/20 09:44:42;;;;;;;7.55;2.22;;;1.80;99.90;;;;;;5092151;28;20056;-72
2021/12/20 09:47:08;;;;;;;;;;;1.90;99.90;;;;;;5091869;28;20044;-69
2021/12/20 09:49:34;;;;;;;8.82;2.05;;;2.10;99.90;;;;;;5091370;28;19916;-68
2021/12/20 09:52:00;;;;;;;5.35;1.90;;;2.10;99.90;;;;;;5091375;28;20474;-70
2021/12/20 09:54:27;;;;;;;10.38;2.03;;;2.10;99.90;;;;;;5074355;28;20044;-71
2021/12/20 09:56:55;;;;;;;10.27;2.42;;;2.10;99.90;;;;;;5094087;28;20040;-70
2021/12/20 09:59:22;;;;;;;11.88;2.58;;;2.20;99.90;;;;;;5078365;28;20052;-70
2021/12/20 10:01:49;;;;;;;16.25;3.22;;;2.20;99.90;;;;;;5094216;28;20036;-71
2021/12/20 10:04:16;;;;;;;14.15;3.10;;;2.30;99.90;;;;;;5095055;28;20043;-69
2021/12/20 10:06:42;;;;;;;13.20;3.38;;;2.40;99.90;;;;;;5094966;28;20123;-69
2021/12/20 10:09:14;;;;;;;16.30;2.65;;;2.40;99.90;;;;;;5077911;28;20059;-69
2021/12/20 10:11:43;;;;;;;13.70;3.40;;;2.50;99.90;;;;;;5077387;28;20449;-70
2021/12/20 10:14:12;;;;;;;22.27;4.75;;;2.50;99.90;;;;;;5094015;28;20501;-69
2021/12/20 10:16:44;;;;;;;18.90;3.92;;;2.60;99.90;;;;;;5095536;28;20051;-73
2021/12/20 10:19:30;;;;;;;24.13;4.55;;;2.70;99.90;;;;;;5094284;28;20501;-71
2021/12/20 10:21:58;;;;;;;25.85;5.22;;;2.80;99.90;;;;;;5110926;28;20040;-70
2021/12/20 10:24:35;;;;;;;24.95;4.40;;;2.90;99.90;;;;;;5077431;28;20394;-72
2021/12/20 10:27:03;;;;;;;25.65;5.75;;;3.00;99.90;;;;;;5093939;28;20470;-69
2021/12/20 10:29:29;;;;;;;28.67;5.63;;;3.20;99.90;;;;;;5094374;28;20416;-70
2021/12/20 10:31:56;;;;;;;26.83;5.68;;;3.40;99.90;;;;;;5094297;28;20051;-69
2021/12/20 10:34:33;;;;;;;37.00;6.13;;;3.80;99.90;;;;;;5093953;28;20127;-69
2021/12/20 10:37:01;;;;;;;34.20;6.10;;;4.50;99.90;;;;;;5094294;28;20527;-72
2021/12/20 10:39:47;;;;;;;34.75;6.22;;;5.00;99.90;;;;;;5077739;28;20051;-71
2021/12/20 10:42:19;;;;;;;26.70;5.55;;;5.30;99.90;;;;;;5093979;28;20347;-72
2021/12/20 10:45:07;;;;;;;27.60;6.22;;;5.60;99.90;;;;;;5093936;28;20040;-69
2021/12/20 10:47:32;;;;;;;32.72;6.43;;;6.10;99.90;;;;;;5094018;28;20097;-71
2021/12/20 10:49:58;;;;;;;23.98;5.30;;;6.60;99.90;;;;;;5094052;28;20052;-69
2021/12/20 10:52:28;;;;;;;26.17;5.63;;;6.90;99.90;;;;;;5093904;28;20122;-71
2021/12/20 10:54:53;;;;;;;;;;;6.70;99.90;;;;;;5077443;28;20477;-70
2021/12/20 10:57:28;;;;;;;25.92;5.72;;;6.40;99.90;;;;;;5093149;28;20475;-68
2021/12/20 11:00:14;;;;;;;31.52;5.55;;;6.10;99.90;;;;;;5093380;28;20104;-71
2021/12/20 11:03:21;;;;;;;26.00;5.72;;;5.90;99.90;;;;;;5093212;28;20036;-69
2021/12/20 11:11:18;;;;;;;24.70;4.78;;;5.50;99.90;;;;;;5093464;28;20054;-69
2021/12/20 11:13:46;;;;;;;23.40;5.13;;;5.50;99.90;;;;;;5127543;27;20040;-72
2021/12/20 11:16:27;;;;;;;27.33;5.00;;;5.50;99.90;;;;;;5092839;28;20394;-69
2021/12/20 11:19:15;;;;;;;26.30;4.80;;;5.80;99.90;;;;;;5093470;28;20047;-71
2021/12/20 11:22:00;;;;;;;20.05;4.70;;;6.00;99.90;;;;;;5127383;27;20052;-70
2021/12/20 11:24:32;;;;;;;21.27;4.25;;;6.10;99.90;;;;;;5126922;27;20044;-69
2021/12/20 11:27:00;;;;;;;19.92;4.60;;;6.20;99.90;;;;;;5110170;28;20131;-70
2021/12/20 11:29:26;;;;;;;28.40;5.65;;;6.30;99.90;;;;;;5093221;28;20511;-69
2021/12/20 11:31:53;;;;;;;24.55;5.32;;;6.40;99.90;;;;;;5093147;28;20131;-69
2021/12/20 11:34:19;;;;;;;20.17;4.03;;;6.70;99.90;;;;;;5093192;28;20120;-69
2021/12/20 11:36:45;;;;;;;13.85;3.67;;;7.10;99.90;;;;;;5092965;28;20129;-72
2021/12/20 11:39:11;;;;;;;19.45;4.05;;;7.50;99.90;;;;;;5092468;28;20113;-70
2021/12/20 11:41:38;;;;;;;18.15;3.97;;;7.80;99.90;;;;;;5093326;28;20040;-69
2021/12/20 11:44:06;;;;;;;14.10;3.22;;;8.10;99.90;;;;;;5092945;28;20127;-70
2021/12/20 11:46:46;;;;;;;19.48;3.78;;;8.30;99.90;;;;;;5092804;28;20483;-69
2021/12/20 11:49:20;;;;;;;14.10;3.00;;;8.80;99.90;;;;;;5092615;28;20473;-70
2021/12/20 11:52:13;;;;;;;14.40;3.35;;;9.20;99.90;;;;;;5092733;28;20071;-69
2021/12/20 11:54:41;;;;;;;12.00;2.80;;;9.60;99.90;;;;;;5092709;28;20458;-69
2021/12/20 11:57:29;;;;;;;14.13;2.75;;;10.00;99.90;;;;;;5092163;28;20040;-69
2021/12/20 11:59:58;;;;;;;18.35;2.92;;;10.10;99.90;;;;;;5092159;28;20036;-72
2021/12/20 12:02:32;;;;;;;9.45;2.33;;;9.80;99.90;;;;;;5092873;28;20078;-70
2021/12/20 12:05:07;;;;;;;9.50;2.33;;;9.40;99.90;;;;;;5092070;28;20040;-69
2021/12/20 12:07:35;;;;;;;13.00;2.40;;;9.50;99.90;;;;;;5075593;28;20482;-69
2021/12/20 12:10:09;;;;;;;10.40;2.45;;;9.60;99.90;;;;;;5092379;28;20051;-69
2021/12/20 12:12:41;;;;;;;12.07;2.25;;;9.90;99.90;;;;;;5091987;28;20134;-70
2021/12/20 12:15:21;;;;;;;11.63;2.50;;;10.20;99.90;;;;;;5092199;28;20040;-70
2021/12/20 12:17:56;;;;;;;11.57;2.30;;;10.50;99.90;;;;;;5091772;28;20123;-70
2021/12/20 12:20:51;;;;;;;8.70;2.08;;;10.40;99.90;;;;;;5091779;28;20052;-69
2021/12/20 12:23:25;;;;;;;10.50;2.08;;;10.30;98.40;;;;;;5092500;28;20044;-69
2021/12/20 12:25:51;;;;;;;10.18;2.42;;;10.30;99.90;;;;;;5092155;28;20056;-69
2021/12/20 12:28:23;;;;;;;11.02;2.20;;;10.30;99.90;;;;;;5091765;28;20047;-70
2021/12/20 12:30:58;;;;;;;10.73;2.13;;;10.40;99.90;;;;;;5091875;28;20048;-70
2021/12/20 12:33:27;;;;;;;12.82;2.28;;;10.40;99.90;;;;;;5075051;28;20044;-70
2021/12/20 12:35:55;;;;;;;9.35;1.98;;;10.30;99.90;;;;;;5092290;28;20181;-70
2021/12/20 12:38:37;;;;;;;7.40;1.92;;;9.90;99.90;;;;;;5091698;28;20523;-70
2021/12/20 12:41:07;;;;;;;9.50;2.15;;;9.70;99.90;;;;;;5091706;28;20535;-70
2021/12/20 12:43:52;;;;;;;6.82;1.90;;;9.80;99.90;;;;;;5091897;28;20127;-72
2021/12/20 12:46:36;;;;;;;12.52;2.40;;;10.30;99.90;;;;;;5092039;28;20458;-70
2021/12/20 12:49:21;;;;;;;11.50;2.30;;;10.60;99.90;;;;;;5091081;28;20036;-72
2021/12/20 12:51:52;;;;;;;9.60;2.15;;;10.90;97.60;;;;;;5125488;28;20505;-71
2021/12/20 12:54:33;;;;;;;10.70;2.28;;;11.00;97.30;;;;;;5091379;28;20052;-72
2021/12/20 12:57:10;;;;;;;13.73;2.72;;;11.10;93.40;;;;;;5092344;28;20036;-72
2021/12/20 12:59:42;;;;;;;7.78;2.20;;;11.20;93.40;;;;;;5092053;28;20040;-69
2021/12/20 13:02:11;;;;;;;8.02;1.88;;;11.40;94.70;;;;;;5091448;28;20052;-69
2021/12/20 13:04:46;;;;;;;10.33;2.30;;;11.30;93.90;;;;;;5091470;28;20043;-69
2021/12/20 13:07:24;;;;;;;8.27;1.73;;;11.40;91.60;;;;;;5090859;28;20420;-69
2021/12/20 13:09:51;;;;;;;5.75;1.73;;;11.30;91.70;;;;;;5090574;28;20111;-69
2021/12/20 13:15:29;;;;;;;7.25;1.75;;;10.50;95.30;;;;;;5090515;28;20051;-70
2021/12/20 13:17:54;;;;;;;8.40;1.65;;;10.00;99.10;;;;;;5089955;28;20505;-72